sensor_id;sensor_type;location;lat;lon;timestamp;temperature;humidity
56512;DHT22;42408;53.238;5.686;2023-10-31T00:00:26;10.90;99.90
56512;DHT22;42408;53.238;5.686;2023-10-31T00:02:52;10.90;99.90
56512;DHT22;42408;53.238;5.686;2023-10-31T00:05:17;11.00;99.90
56512;DHT22;42408;53.238;5.686;2023-10-31T00:07:43;10.90;99.90
56512;DHT22;42408;53.238;5.686;2023-10-31T00:10:09;10.90;99.90
56512;DHT22;42408;53.238;5.686;2023-10-31T00:12:34;10.90;99.90
56512;DHT22;42408;53.238;5.686;2023-10-31T00:15:00;11.00;99.90
56512;DHT22;42408;53.238;5.686;2023-10-31T00:17:26;11.00;99.90
56512;DHT22;42408;53.238;5.686;2023-10-31T00:19:51;11.00;99.90
56512;DHT22;42408;53.238;5.686;2023-10-31T00:22:17;11.00;99.90
56512;DHT22;42408;53.238;5.686;2023-10-31T00:24:43;11.00;99.90
56512;DHT22;42408;53.238;5.686;2023-10-31T00:27:08;10.90;99.90
56512;DHT22;42408;53.238;5.686;2023-10-31T00:29:34;11.00;99.90
56512;DHT22;42408;53.238;5.686;2023-10-31T00:32:00;11.00;99.90
56512;DHT22;42408;53.238;5.686;2023-10-31T00:34:25;11.00;99.90
56512;DHT22;42408;53.238;5.686;2023-10-31T00:36:51;11.60;99.90
56512;DHT22;42408;53.238;5.686;2023-10-31T00:39:17;11.00;99.90
56512;DHT22;42408;53.238;5.686;2023-10-31T00:41:45;10.90;99.90
56512;DHT22;42408;53.238;5.686;2023-10-31T00:44:12;11.00;99.90
56512;DHT22;42408;53.238;5.686;2023-10-31T00:46:37;11.00;99.90
56512;DHT22;42408;53.238;5.686;2023-10-31T00:49:03;10.90;99.90
56512;DHT22;42408;53.238;5.686;2023-10-31T00:51:29;11.00;99.90
56512;DHT22;42408;53.238;5.686;2023-10-31T00:53:54;10.90;99.90
56512;DHT22;42408;53.238;5.686;2023-10-31T00:56:20;10.90;99.90
56512;DHT22;42408;53.238;5.686;2023-10-31T00:58:46;10.90;99.90
56512;DHT22;42408;53.238;5.686;2023-10-31T01:01:11;10.90;99.90
56512;DHT22;42408;53.238;5.686;2023-10-31T01:03:37;10.90;99.90
56512;DHT22;42408;53.238;5.686;2023-10-31T01:06:03;11.60;99.90
56512;DHT22;42408;53.238;5.686;2023-10-31T01:08:29;10.80;99.90
56512;DHT22;42408;53.238;5.686;2023-10-31T01:10:55;10.80;99.90
56512;DHT22;42408;53.238;5.686;2023-10-31T01:13:21;10.90;99.90
56512;DHT22;42408;53.238;5.686;2023-10-31T01:15:47;10.80;99.90
56512;DHT22;42408;53.238;5.686;2023-10-31T01:18:12;10.80;99.90
56512;DHT22;42408;53.238;5.686;2023-10-31T01:20:38;10.90;99.90
56512;DHT22;42408;53.238;5.686;2023-10-31T01:23:04;10.80;99.90
56512;DHT22;42408;53.238;5.686;2023-10-31T01:25:29;10.80;99.90
56512;DHT22;42408;53.238;5.686;2023-10-31T01:27:55;10.80;99.90
56512;DHT22;42408;53.238;5.686;2023-10-31T01:30:20;10.80;99.90
56512;DHT22;42408;53.238;5.686;2023-10-31T01:32:46;10.80;99.90
56512;DHT22;42408;53.238;5.686;2023-10-31T01:35:12;10.90;99.90
56512;DHT22;42408;53.238;5.686;2023-10-31T01:37:37;10.80;99.90
56512;DHT22;42408;53.238;5.686;2023-10-31T01:40:04;10.90;99.90
56512;DHT22;42408;53.238;5.686;2023-10-31T01:42:30;10.80;99.90
56512;DHT22;42408;53.238;5.686;2023-10-31T01:44:55;10.80;99.90
56512;DHT22;42408;53.238;5.686;2023-10-31T01:47:21;10.80;99.90
56512;DHT22;42408;53.238;5.686;2023-10-31T01:49:49;10.80;99.90
56512;DHT22;42408;53.238;5.686;2023-10-31T01:52:15;10.80;99.90
56512;DHT22;42408;53.238;5.686;2023-10-31T01:54:41;10.80;99.90
56512;DHT22;42408;53.238;5.686;2023-10-31T01:57:07;10.80;99.90
56512;DHT22;42408;53.238;5.686;2023-10-31T01:59:33;10.80;99.90
56512;DHT22;42408;53.238;5.686;2023-10-31T02:02:01;10.90;99.90
56512;DHT22;42408;53.238;5.686;2023-10-31T02:04:26;10.90;99.90
56512;DHT22;42408;53.238;5.686;2023-10-31T02:06:52;10.90;99.90
56512;DHT22;42408;53.238;5.686;2023-10-31T02:09:17;10.90;99.90
56512;DHT22;42408;53.238;5.686;2023-10-31T02:11:43;10.90;99.90
56512;DHT22;42408;53.238;5.686;2023-10-31T02:14:09;10.90;99.90
56512;DHT22;42408;53.238;5.686;2023-10-31T02:16:34;10.90;99.90
56512;DHT22;42408;53.238;5.686;2023-10-31T02:19:00;10.90;99.90
56512;DHT22;42408;53.238;5.686;2023-10-31T02:21:27;10.90;99.90
56512;DHT22;42408;53.238;5.686;2023-10-31T02:23:58;10.90;99.90
56512;DHT22;42408;53.238;5.686;2023-10-31T02:26:29;10.90;99.90
56512;DHT22;42408;53.238;5.686;2023-10-31T02:28:55;10.90;99.90
56512;DHT22;42408;53.238;5.686;2023-10-31T02:31:21;10.90;99.90
56512;DHT22;42408;53.238;5.686;2023-10-31T02:33:47;10.90;99.90
56512;DHT22;42408;53.238;5.686;2023-10-31T02:36:12;10.90;99.90
56512;DHT22;42408;53.238;5.686;2023-10-31T02:38:38;10.90;99.90
56512;DHT22;42408;53.238;5.686;2023-10-31T02:41:04;10.90;99.90
56512;DHT22;42408;53.238;5.686;2023-10-31T02:43:30;10.90;99.90
56512;DHT22;42408;53.238;5.686;2023-10-31T02:45:55;11.00;99.90
56512;DHT22;42408;53.238;5.686;2023-10-31T02:48:21;10.90;99.90
56512;DHT22;42408;53.238;5.686;2023-10-31T02:50:47;10.90;99.90
56512;DHT22;42408;53.238;5.686;2023-10-31T02:53:12;11.30;99.90
56512;DHT22;42408;53.238;5.686;2023-10-31T02:55:38;11.00;99.90
56512;DHT22;42408;53.238;5.686;2023-10-31T02:58:03;10.90;99.90
56512;DHT22;42408;53.238;5.686;2023-10-31T03:00:29;11.00;99.90
56512;DHT22;42408;53.238;5.686;2023-10-31T03:02:54;11.00;99.90
56512;DHT22;42408;53.238;5.686;2023-10-31T03:05:20;11.00;99.90
56512;DHT22;42408;53.238;5.686;2023-10-31T03:07:46;11.00;99.90
56512;DHT22;42408;53.238;5.686;2023-10-31T03:10:12;11.00;99.90
56512;DHT22;42408;53.238;5.686;2023-10-31T03:12:37;11.00;99.90
56512;DHT22;42408;53.238;5.686;2023-10-31T03:15:03;11.00;99.90
56512;DHT22;42408;53.238;5.686;2023-10-31T03:17:29;11.00;99.90
56512;DHT22;42408;53.238;5.686;2023-10-31T03:19:55;11.00;99.90
56512;DHT22;42408;53.238;5.686;2023-10-31T03:22:21;11.10;99.90
56512;DHT22;42408;53.238;5.686;2023-10-31T03:24:47;11.00;99.90
56512;DHT22;42408;53.238;5.686;2023-10-31T03:27:12;11.10;99.90
56512;DHT22;42408;53.238;5.686;2023-10-31T03:29:38;11.00;99.90
56512;DHT22;42408;53.238;5.686;2023-10-31T03:32:04;11.10;99.90
56512;DHT22;42408;53.238;5.686;2023-10-31T03:34:30;11.00;99.90
56512;DHT22;42408;53.238;5.686;2023-10-31T03:36:56;11.00;99.90
56512;DHT22;42408;53.238;5.686;2023-10-31T03:39:22;11.00;99.90
56512;DHT22;42408;53.238;5.686;2023-10-31T03:41:47;11.00;99.90
56512;DHT22;42408;53.238;5.686;2023-10-31T03:44:13;11.00;99.90
56512;DHT22;42408;53.238;5.686;2023-10-31T03:46:39;10.90;99.90
56512;DHT22;42408;53.238;5.686;2023-10-31T03:49:04;10.90;99.90
56512;DHT22;42408;53.238;5.686;2023-10-31T03:51:33;10.90;99.90
56512;DHT22;42408;53.238;5.686;2023-10-31T03:53:59;10.90;99.90
56512;DHT22;42408;53.238;5.686;2023-10-31T03:56:25;10.90;99.90
56512;DHT22;42408;53.238;5.686;2023-10-31T03:58:50;10.90;99.90
56512;DHT22;42408;53.238;5.686;2023-10-31T04:01:16;11.00;99.90
56512;DHT22;42408;53.238;5.686;2023-10-31T04:03:42;10.90;99.90
56512;DHT22;42408;53.238;5.686;2023-10-31T04:06:08;11.00;99.90
56512;DHT22;42408;53.238;5.686;2023-10-31T04:08:33;11.00;99.90
56512;DHT22;42408;53.238;5.686;2023-10-31T04:10:59;11.00;99.90
56512;DHT22;42408;53.238;5.686;2023-10-31T04:13:25;11.00;99.90
56512;DHT22;42408;53.238;5.686;2023-10-31T04:15:50;11.00;99.90
56512;DHT22;42408;53.238;5.686;2023-10-31T04:18:16;11.00;99.90
56512;DHT22;42408;53.238;5.686;2023-10-31T04:20:42;11.00;99.90
56512;DHT22;42408;53.238;5.686;2023-10-31T04:23:08;10.90;99.90
56512;DHT22;42408;53.238;5.686;2023-10-31T04:25:34;10.90;99.90
56512;DHT22;42408;53.238;5.686;2023-10-31T04:27:59;11.80;99.90
56512;DHT22;42408;53.238;5.686;2023-10-31T04:30:25;10.90;99.90
56512;DHT22;42408;53.238;5.686;2023-10-31T04:32:52;10.90;99.90
56512;DHT22;42408;53.238;5.686;2023-10-31T04:35:17;10.90;99.90
56512;DHT22;42408;53.238;5.686;2023-10-31T04:37:43;10.90;99.90
56512;DHT22;42408;53.238;5.686;2023-10-31T04:40:10;10.90;99.90
56512;DHT22;42408;53.238;5.686;2023-10-31T04:42:35;10.90;99.90
56512;DHT22;42408;53.238;5.686;2023-10-31T04:45:01;11.00;99.90
56512;DHT22;42408;53.238;5.686;2023-10-31T04:47:27;10.90;99.90
56512;DHT22;42408;53.238;5.686;2023-10-31T04:49:52;11.10;99.90
56512;DHT22;42408;53.238;5.686;2023-10-31T04:52:18;11.00;99.90
56512;DHT22;42408;53.238;5.686;2023-10-31T04:54:45;11.00;99.90
56512;DHT22;42408;53.238;5.686;2023-10-31T04:57:10;11.00;99.90
56512;DHT22;42408;53.238;5.686;2023-10-31T04:59:36;11.00;99.90
56512;DHT22;42408;53.238;5.686;2023-10-31T05:02:03;11.00;99.90
56512;DHT22;42408;53.238;5.686;2023-10-31T05:04:28;11.00;99.90
56512;DHT22;42408;53.238;5.686;2023-10-31T05:06:54;11.00;99.90
56512;DHT22;42408;53.238;5.686;2023-10-31T05:09:20;11.00;99.90
56512;DHT22;42408;53.238;5.686;2023-10-31T05:11:45;11.10;99.90
56512;DHT22;42408;53.238;5.686;2023-10-31T05:14:11;11.10;99.90
56512;DHT22;42408;53.238;5.686;2023-10-31T05:16:41;11.10;99.90
56512;DHT22;42408;53.238;5.686;2023-10-31T05:19:07;11.10;99.90
56512;DHT22;42408;53.238;5.686;2023-10-31T05:21:33;11.10;99.90
56512;DHT22;42408;53.238;5.686;2023-10-31T05:23:58;11.10;99.90
56512;DHT22;42408;53.238;5.686;2023-10-31T05:26:24;11.20;99.90
56512;DHT22;42408;53.238;5.686;2023-10-31T05:28:50;11.10;99.90
56512;DHT22;42408;53.238;5.686;2023-10-31T05:31:15;11.10;99.90
56512;DHT22;42408;53.238;5.686;2023-10-31T05:33:42;11.10;99.90
56512;DHT22;42408;53.238;5.686;2023-10-31T05:36:21;11.10;99.90
56512;DHT22;42408;53.238;5.686;2023-10-31T05:38:47;11.10;99.90
56512;DHT22;42408;53.238;5.686;2023-10-31T05:41:14;11.10;99.90
56512;DHT22;42408;53.238;5.686;2023-10-31T05:43:40;11.10;99.90
56512;DHT22;42408;53.238;5.686;2023-10-31T05:46:05;11.20;99.90
56512;DHT22;42408;53.238;5.686;2023-10-31T05:48:34;11.30;99.90
56512;DHT22;42408;53.238;5.686;2023-10-31T05:50:59;11.20;99.90
56512;DHT22;42408;53.238;5.686;2023-10-31T05:53:25;11.20;99.90
56512;DHT22;42408;53.238;5.686;2023-10-31T05:55:51;11.10;99.90
56512;DHT22;42408;53.238;5.686;2023-10-31T05:58:16;11.10;99.90
56512;DHT22;42408;53.238;5.686;2023-10-31T06:00:42;11.10;99.90
56512;DHT22;42408;53.238;5.686;2023-10-31T06:03:07;11.60;99.90
56512;DHT22;42408;53.238;5.686;2023-10-31T06:05:34;11.10;99.90
56512;DHT22;42408;53.238;5.686;2023-10-31T06:08:00;11.10;99.90
56512;DHT22;42408;53.238;5.686;2023-10-31T06:10:26;11.10;99.90
56512;DHT22;42408;53.238;5.686;2023-10-31T06:12:51;11.00;99.90
56512;DHT22;42408;53.238;5.686;2023-10-31T06:15:17;11.10;99.90
56512;DHT22;42408;53.238;5.686;2023-10-31T06:17:43;11.00;99.90
56512;DHT22;42408;53.238;5.686;2023-10-31T06:20:09;11.00;99.90
56512;DHT22;42408;53.238;5.686;2023-10-31T06:22:34;11.00;99.90
56512;DHT22;42408;53.238;5.686;2023-10-31T06:25:00;11.00;99.90
56512;DHT22;42408;53.238;5.686;2023-10-31T06:27:26;10.90;99.90
56512;DHT22;42408;53.238;5.686;2023-10-31T06:29:52;11.00;99.90
56512;DHT22;42408;53.238;5.686;2023-10-31T06:32:18;10.90;99.90
56512;DHT22;42408;53.238;5.686;2023-10-31T06:34:43;10.80;99.90
56512;DHT22;42408;53.238;5.686;2023-10-31T06:37:10;10.90;99.90
56512;DHT22;42408;53.238;5.686;2023-10-31T06:39:36;10.80;99.90
56512;DHT22;42408;53.238;5.686;2023-10-31T06:42:01;10.80;99.90
56512;DHT22;42408;53.238;5.686;2023-10-31T06:44:27;10.80;99.90
56512;DHT22;42408;53.238;5.686;2023-10-31T06:46:52;10.80;99.90
56512;DHT22;42408;53.238;5.686;2023-10-31T06:49:18;10.90;99.90
56512;DHT22;42408;53.238;5.686;2023-10-31T06:51:45;10.90;99.90
56512;DHT22;42408;53.238;5.686;2023-10-31T06:54:10;10.90;99.90
56512;DHT22;42408;53.238;5.686;2023-10-31T06:56:36;10.80;99.90
56512;DHT22;42408;53.238;5.686;2023-10-31T06:59:01;10.90;99.90
56512;DHT22;42408;53.238;5.686;2023-10-31T07:01:27;10.90;99.90
56512;DHT22;42408;53.238;5.686;2023-10-31T07:03:53;10.90;99.90
56512;DHT22;42408;53.238;5.686;2023-10-31T07:06:18;11.00;99.90
56512;DHT22;42408;53.238;5.686;2023-10-31T07:08:44;11.00;99.90
56512;DHT22;42408;53.238;5.686;2023-10-31T07:11:09;10.90;99.90
56512;DHT22;42408;53.238;5.686;2023-10-31T07:13:36;11.00;99.90
56512;DHT22;42408;53.238;5.686;2023-10-31T07:16:02;11.00;99.90
56512;DHT22;42408;53.238;5.686;2023-10-31T07:18:27;11.00;99.90
56512;DHT22;42408;53.238;5.686;2023-10-31T07:20:53;11.00;99.90
56512;DHT22;42408;53.238;5.686;2023-10-31T07:23:19;11.00;99.90
56512;DHT22;42408;53.238;5.686;2023-10-31T07:25:44;11.00;99.90
56512;DHT22;42408;53.238;5.686;2023-10-31T07:28:10;11.00;99.90
56512;DHT22;42408;53.238;5.686;2023-10-31T07:30:36;11.00;99.90
56512;DHT22;42408;53.238;5.686;2023-10-31T07:33:02;11.10;99.90
56512;DHT22;42408;53.238;5.686;2023-10-31T07:35:28;11.10;99.90
56512;DHT22;42408;53.238;5.686;2023-10-31T07:37:53;11.10;99.90
56512;DHT22;42408;53.238;5.686;2023-10-31T07:40:19;11.10;99.90
56512;DHT22;42408;53.238;5.686;2023-10-31T07:42:45;11.00;99.90
56512;DHT22;42408;53.238;5.686;2023-10-31T07:45:10;11.10;99.90
56512;DHT22;42408;53.238;5.686;2023-10-31T07:47:36;11.20;99.90
56512;DHT22;42408;53.238;5.686;2023-10-31T07:50:02;11.20;99.90
56512;DHT22;42408;53.238;5.686;2023-10-31T07:52:28;11.20;99.90
56512;DHT22;42408;53.238;5.686;2023-10-31T07:54:53;11.20;99.90
56512;DHT22;42408;53.238;5.686;2023-10-31T07:57:19;11.40;99.90
56512;DHT22;42408;53.238;5.686;2023-10-31T07:59:45;11.10;99.90
56512;DHT22;42408;53.238;5.686;2023-10-31T08:02:10;11.20;99.90
56512;DHT22;42408;53.238;5.686;2023-10-31T08:04:36;11.20;99.90
56512;DHT22;42408;53.238;5.686;2023-10-31T08:07:02;11.10;99.90
56512;DHT22;42408;53.238;5.686;2023-10-31T08:09:27;11.20;99.90
56512;DHT22;42408;53.238;5.686;2023-10-31T08:11:54;11.20;99.90
56512;DHT22;42408;53.238;5.686;2023-10-31T08:14:19;11.30;99.90
56512;DHT22;42408;53.238;5.686;2023-10-31T08:16:47;11.30;99.90
56512;DHT22;42408;53.238;5.686;2023-10-31T08:19:13;11.30;99.90
56512;DHT22;42408;53.238;5.686;2023-10-31T08:21:40;11.30;99.90
56512;DHT22;42408;53.238;5.686;2023-10-31T08:24:05;11.30;99.90
56512;DHT22;42408;53.238;5.686;2023-10-31T08:26:32;11.30;99.90
56512;DHT22;42408;53.238;5.686;2023-10-31T08:28:58;11.20;99.90
56512;DHT22;42408;53.238;5.686;2023-10-31T08:31:24;11.20;99.90
56512;DHT22;42408;53.238;5.686;2023-10-31T08:33:50;11.30;99.90
56512;DHT22;42408;53.238;5.686;2023-10-31T08:36:15;11.20;99.90
56512;DHT22;42408;53.238;5.686;2023-10-31T08:38:41;11.30;99.90
56512;DHT22;42408;53.238;5.686;2023-10-31T08:41:07;11.30;99.90
56512;DHT22;42408;53.238;5.686;2023-10-31T08:43:32;11.40;99.90
56512;DHT22;42408;53.238;5.686;2023-10-31T08:45:58;11.40;99.90
56512;DHT22;42408;53.238;5.686;2023-10-31T08:48:24;11.40;99.90
56512;DHT22;42408;53.238;5.686;2023-10-31T08:50:50;11.40;99.90
56512;DHT22;42408;53.238;5.686;2023-10-31T08:53:15;11.40;99.90
56512;DHT22;42408;53.238;5.686;2023-10-31T08:55:42;11.40;99.90
56512;DHT22;42408;53.238;5.686;2023-10-31T08:58:13;11.40;99.90
56512;DHT22;42408;53.238;5.686;2023-10-31T09:00:40;11.40;99.90
56512;DHT22;42408;53.238;5.686;2023-10-31T09:03:09;11.40;99.90
56512;DHT22;42408;53.238;5.686;2023-10-31T09:05:34;11.40;99.90
56512;DHT22;42408;53.238;5.686;2023-10-31T09:08:00;11.50;99.90
56512;DHT22;42408;53.238;5.686;2023-10-31T09:10:26;11.50;99.90
56512;DHT22;42408;53.238;5.686;2023-10-31T09:12:51;11.50;99.90
56512;DHT22;42408;53.238;5.686;2023-10-31T09:15:17;11.50;99.90
56512;DHT22;42408;53.238;5.686;2023-10-31T09:17:44;11.50;99.90
56512;DHT22;42408;53.238;5.686;2023-10-31T09:20:10;11.60;99.90
56512;DHT22;42408;53.238;5.686;2023-10-31T09:22:37;11.60;99.90
56512;DHT22;42408;53.238;5.686;2023-10-31T09:25:03;11.60;99.90
56512;DHT22;42408;53.238;5.686;2023-10-31T09:27:29;11.60;99.90
56512;DHT22;42408;53.238;5.686;2023-10-31T09:29:54;11.60;99.90
56512;DHT22;42408;53.238;5.686;2023-10-31T09:32:20;11.60;99.90
56512;DHT22;42408;53.238;5.686;2023-10-31T09:34:45;11.60;99.90
56512;DHT22;42408;53.238;5.686;2023-10-31T09:37:11;11.70;99.90
56512;DHT22;42408;53.238;5.686;2023-10-31T09:39:37;11.70;99.90
56512;DHT22;42408;53.238;5.686;2023-10-31T09:42:03;11.80;99.90
56512;DHT22;42408;53.238;5.686;2023-10-31T09:44:28;11.80;99.90
56512;DHT22;42408;53.238;5.686;2023-10-31T09:46:55;11.80;99.90
56512;DHT22;42408;53.238;5.686;2023-10-31T09:49:20;11.80;99.90
56512;DHT22;42408;53.238;5.686;2023-10-31T09:51:47;11.80;99.90
56512;DHT22;42408;53.238;5.686;2023-10-31T09:54:14;11.80;99.90
56512;DHT22;42408;53.238;5.686;2023-10-31T09:56:42;11.80;99.90
56512;DHT22;42408;53.238;5.686;2023-10-31T09:59:08;11.70;99.90
56512;DHT22;42408;53.238;5.686;2023-10-31T10:01:35;11.70;99.90
56512;DHT22;42408;53.238;5.686;2023-10-31T10:04:01;11.80;99.90
56512;DHT22;42408;53.238;5.686;2023-10-31T10:06:27;11.80;99.90
56512;DHT22;42408;53.238;5.686;2023-10-31T10:08:53;11.80;99.90
56512;DHT22;42408;53.238;5.686;2023-10-31T10:11:20;11.90;99.90
56512;DHT22;42408;53.238;5.686;2023-10-31T10:13:47;11.90;99.90
56512;DHT22;42408;53.238;5.686;2023-10-31T10:16:12;11.90;99.90
56512;DHT22;42408;53.238;5.686;2023-10-31T10:18:38;11.90;99.90
56512;DHT22;42408;53.238;5.686;2023-10-31T10:21:07;11.90;99.90
56512;DHT22;42408;53.238;5.686;2023-10-31T10:23:33;11.90;99.90
56512;DHT22;42408;53.238;5.686;2023-10-31T10:26:00;11.90;99.90
56512;DHT22;42408;53.238;5.686;2023-10-31T10:28:26;12.00;99.90
56512;DHT22;42408;53.238;5.686;2023-10-31T10:30:53;12.00;99.90
56512;DHT22;42408;53.238;5.686;2023-10-31T10:33:20;12.00;99.90
56512;DHT22;42408;53.238;5.686;2023-10-31T10:35:46;12.00;99.90
56512;DHT22;42408;53.238;5.686;2023-10-31T10:38:16;12.10;99.90
56512;DHT22;42408;53.238;5.686;2023-10-31T10:40:46;12.40;99.90
56512;DHT22;42408;53.238;5.686;2023-10-31T10:43:22;12.10;99.90
56512;DHT22;42408;53.238;5.686;2023-10-31T10:45:53;12.10;99.90
56512;DHT22;42408;53.238;5.686;2023-10-31T10:48:27;12.80;99.90
56512;DHT22;42408;53.238;5.686;2023-10-31T10:51:06;12.00;99.90
56512;DHT22;42408;53.238;5.686;2023-10-31T10:53:44;12.00;99.90
56512;DHT22;42408;53.238;5.686;2023-10-31T10:56:41;11.90;99.90
56512;DHT22;42408;53.238;5.686;2023-10-31T10:59:18;12.00;99.90
56512;DHT22;42408;53.238;5.686;2023-10-31T11:01:46;11.90;99.90
56512;DHT22;42408;53.238;5.686;2023-10-31T11:04:14;11.90;99.90
56512;DHT22;42408;53.238;5.686;2023-10-31T11:06:41;12.00;99.90
56512;DHT22;42408;53.238;5.686;2023-10-31T11:09:09;12.10;99.90
56512;DHT22;42408;53.238;5.686;2023-10-31T11:11:37;12.10;99.90
56512;DHT22;42408;53.238;5.686;2023-10-31T11:14:03;12.30;99.90
56512;DHT22;42408;53.238;5.686;2023-10-31T11:16:52;12.20;99.90
56512;DHT22;42408;53.238;5.686;2023-10-31T11:19:19;12.30;99.90
56512;DHT22;42408;53.238;5.686;2023-10-31T11:21:55;12.30;99.90
56512;DHT22;42408;53.238;5.686;2023-10-31T11:24:22;12.50;99.90
56512;DHT22;42408;53.238;5.686;2023-10-31T11:26:51;12.40;99.90
56512;DHT22;42408;53.238;5.686;2023-10-31T11:29:17;12.30;99.90
56512;DHT22;42408;53.238;5.686;2023-10-31T11:31:43;12.40;99.90
56512;DHT22;42408;53.238;5.686;2023-10-31T11:34:09;12.40;99.90
56512;DHT22;42408;53.238;5.686;2023-10-31T11:36:38;12.40;99.90
56512;DHT22;42408;53.238;5.686;2023-10-31T11:39:11;12.40;99.90
56512;DHT22;42408;53.238;5.686;2023-10-31T11:41:48;12.40;99.90
56512;DHT22;42408;53.238;5.686;2023-10-31T11:44:15;12.40;99.90
56512;DHT22;42408;53.238;5.686;2023-10-31T11:46:40;12.40;99.90
56512;DHT22;42408;53.238;5.686;2023-10-31T11:49:06;12.50;99.90
56512;DHT22;42408;53.238;5.686;2023-10-31T11:51:32;12.50;99.90
56512;DHT22;42408;53.238;5.686;2023-10-31T11:53:59;12.50;99.90
56512;DHT22;42408;53.238;5.686;2023-10-31T11:56:27;12.40;99.90
56512;DHT22;42408;53.238;5.686;2023-10-31T11:59:04;12.50;99.90
56512;DHT22;42408;53.238;5.686;2023-10-31T12:01:32;12.60;99.90
56512;DHT22;42408;53.238;5.686;2023-10-31T12:03:57;12.60;99.90
56512;DHT22;42408;53.238;5.686;2023-10-31T12:06:23;12.60;99.90
56512;DHT22;42408;53.238;5.686;2023-10-31T12:08:49;12.60;99.90
56512;DHT22;42408;53.238;5.686;2023-10-31T12:11:17;12.60;99.90
56512;DHT22;42408;53.238;5.686;2023-10-31T12:14:02;12.60;99.90
56512;DHT22;42408;53.238;5.686;2023-10-31T12:16:32;12.60;99.90
56512;DHT22;42408;53.238;5.686;2023-10-31T12:18:59;12.50;99.90
56512;DHT22;42408;53.238;5.686;2023-10-31T12:21:45;12.60;99.90
56512;DHT22;42408;53.238;5.686;2023-10-31T12:24:14;12.50;99.90
56512;DHT22;42408;53.238;5.686;2023-10-31T12:26:40;13.00;99.90
56512;DHT22;42408;53.238;5.686;2023-10-31T12:29:07;12.40;99.90
56512;DHT22;42408;53.238;5.686;2023-10-31T12:31:34;12.30;99.90
56512;DHT22;42408;53.238;5.686;2023-10-31T12:34:06;12.40;99.90
56512;DHT22;42408;53.238;5.686;2023-10-31T12:36:34;12.30;99.90
56512;DHT22;42408;53.238;5.686;2023-10-31T12:39:00;12.30;99.90
56512;DHT22;42408;53.238;5.686;2023-10-31T12:41:26;12.30;99.90
56512;DHT22;42408;53.238;5.686;2023-10-31T12:43:53;12.40;99.90
56512;DHT22;42408;53.238;5.686;2023-10-31T12:46:29;12.30;99.90
56512;DHT22;42408;53.238;5.686;2023-10-31T12:48:56;12.30;99.90
56512;DHT22;42408;53.238;5.686;2023-10-31T12:51:21;12.30;99.90
56512;DHT22;42408;53.238;5.686;2023-10-31T12:53:51;12.30;99.90
56512;DHT22;42408;53.238;5.686;2023-10-31T12:56:39;12.40;99.90
56512;DHT22;42408;53.238;5.686;2023-10-31T12:59:10;12.50;99.90
56512;DHT22;42408;53.238;5.686;2023-10-31T13:01:43;12.50;99.90
56512;DHT22;42408;53.238;5.686;2023-10-31T13:04:09;12.50;99.90
56512;DHT22;42408;53.238;5.686;2023-10-31T13:06:35;12.50;99.90
56512;DHT22;42408;53.238;5.686;2023-10-31T13:09:01;12.40;99.90
56512;DHT22;42408;53.238;5.686;2023-10-31T13:11:30;12.40;99.90
56512;DHT22;42408;53.238;5.686;2023-10-31T13:13:56;12.30;99.90
56512;DHT22;42408;53.238;5.686;2023-10-31T13:16:22;12.40;99.90
56512;DHT22;42408;53.238;5.686;2023-10-31T13:18:47;12.40;99.90
56512;DHT22;42408;53.238;5.686;2023-10-31T13:21:13;12.40;99.90
56512;DHT22;42408;53.238;5.686;2023-10-31T13:23:43;12.50;99.90
56512;DHT22;42408;53.238;5.686;2023-10-31T13:26:13;12.50;99.90
56512;DHT22;42408;53.238;5.686;2023-10-31T13:28:39;12.50;99.90
56512;DHT22;42408;53.238;5.686;2023-10-31T13:31:06;12.50;99.90
56512;DHT22;42408;53.238;5.686;2023-10-31T13:33:32;12.50;99.90
56512;DHT22;42408;53.238;5.686;2023-10-31T13:35:58;12.50;99.90
56512;DHT22;42408;53.238;5.686;2023-10-31T13:38:23;12.50;99.90
56512;DHT22;42408;53.238;5.686;2023-10-31T13:40:49;12.60;99.90
56512;DHT22;42408;53.238;5.686;2023-10-31T13:43:15;12.60;99.90
56512;DHT22;42408;53.238;5.686;2023-10-31T13:45:40;12.60;99.90
56512;DHT22;42408;53.238;5.686;2023-10-31T13:48:06;12.70;99.90
56512;DHT22;42408;53.238;5.686;2023-10-31T13:50:31;12.70;99.90
56512;DHT22;42408;53.238;5.686;2023-10-31T13:52:57;12.80;99.90
56512;DHT22;42408;53.238;5.686;2023-10-31T13:55:23;12.80;99.90
56512;DHT22;42408;53.238;5.686;2023-10-31T13:57:51;12.70;99.90
56512;DHT22;42408;53.238;5.686;2023-10-31T14:00:17;12.80;99.90
56512;DHT22;42408;53.238;5.686;2023-10-31T14:02:43;12.80;99.90
56512;DHT22;42408;53.238;5.686;2023-10-31T14:05:08;12.80;99.90
56512;DHT22;42408;53.238;5.686;2023-10-31T14:07:34;12.80;99.90
56512;DHT22;42408;53.238;5.686;2023-10-31T14:10:01;12.70;99.90
56512;DHT22;42408;53.238;5.686;2023-10-31T14:12:26;12.70;99.90
56512;DHT22;42408;53.238;5.686;2023-10-31T14:14:54;12.60;99.90
56512;DHT22;42408;53.238;5.686;2023-10-31T14:17:19;12.60;99.90
56512;DHT22;42408;53.238;5.686;2023-10-31T14:19:48;12.60;99.90
56512;DHT22;42408;53.238;5.686;2023-10-31T14:22:13;12.50;99.90
56512;DHT22;42408;53.238;5.686;2023-10-31T14:24:39;12.50;99.90
56512;DHT22;42408;53.238;5.686;2023-10-31T14:27:05;12.50;99.90
56512;DHT22;42408;53.238;5.686;2023-10-31T14:29:30;12.40;99.90
56512;DHT22;42408;53.238;5.686;2023-10-31T14:31:56;12.50;99.90
56512;DHT22;42408;53.238;5.686;2023-10-31T14:34:23;12.40;99.90
56512;DHT22;42408;53.238;5.686;2023-10-31T14:36:48;12.30;99.90
56512;DHT22;42408;53.238;5.686;2023-10-31T14:39:15;12.30;99.90
56512;DHT22;42408;53.238;5.686;2023-10-31T14:41:40;12.30;99.90
56512;DHT22;42408;53.238;5.686;2023-10-31T14:44:06;12.30;99.90
56512;DHT22;42408;53.238;5.686;2023-10-31T14:46:33;12.20;99.90
56512;DHT22;42408;53.238;5.686;2023-10-31T14:48:59;12.10;99.90
56512;DHT22;42408;53.238;5.686;2023-10-31T14:51:25;12.10;99.90
56512;DHT22;42408;53.238;5.686;2023-10-31T14:53:51;12.00;99.90
56512;DHT22;42408;53.238;5.686;2023-10-31T14:56:17;12.10;99.90
56512;DHT22;42408;53.238;5.686;2023-10-31T14:58:42;12.10;99.90
56512;DHT22;42408;53.238;5.686;2023-10-31T15:01:08;12.10;99.90
56512;DHT22;42408;53.238;5.686;2023-10-31T15:03:33;12.10;99.90
56512;DHT22;42408;53.238;5.686;2023-10-31T15:05:59;12.10;99.90
56512;DHT22;42408;53.238;5.686;2023-10-31T15:08:25;12.10;99.90
56512;DHT22;42408;53.238;5.686;2023-10-31T15:10:51;12.00;99.90
56512;DHT22;42408;53.238;5.686;2023-10-31T15:13:17;12.10;99.90
56512;DHT22;42408;53.238;5.686;2023-10-31T15:15:43;12.00;99.90
56512;DHT22;42408;53.238;5.686;2023-10-31T15:18:09;12.00;99.90
56512;DHT22;42408;53.238;5.686;2023-10-31T15:20:35;12.00;99.90
56512;DHT22;42408;53.238;5.686;2023-10-31T15:23:00;12.00;99.90
56512;DHT22;42408;53.238;5.686;2023-10-31T15:25:26;11.90;99.90